Elizabeth Prince — WDJ6817 — position and weather

sailwx.info

Track history (hours):
 
Tides and Currents Weather Stations Pressure Air Temp Water Temp Dewpoint Dewpoint Depression Visibility Wind Speed Wind Dir Waves Ship Positions

Elizabeth Prince

Owner: Genesis Marine,LLC, Houston, TX. More information available from US FCC via Universal Licensing System and Coast Guard Vessel Documentation Center.

Last reported at 2018-May-10 13:51 UTC. Time now 2018-May-21 11:13 UTC.
Position N 29°33' W 090°24'.
Warning: this ship's position is 10 days out of date.

Length 27 m; draft 2.6 m.

Type: Towing. MMSI: 368000510.

Date/timePositionNaut miles runAvg speedWind from/ knotsBaromVisibWave heightAir tempDewpointWater temp
2018-May-10 13:51N 29°33' W 090°24'2 5.0
2018-May-10 13:27N 29°33' W 090°26'3 6.0
2018-May-10 13:01N 29°34' W 090°29'3 5.9
2018-May-10 12:30N 29°34' W 090°32'2 4.1
2018-May-10 12:00N 29°34' W 090°35'2 4.9
2018-May-10 11:31N 29°35' W 090°37'0 0.7
2018-May-10 11:00N 29°35' W 090°38'0 0.5
2018-May-10 10:31N 29°35' W 090°38'2 4.2
2018-May-10 10:00N 29°36' W 090°40'0 0.1
2018-May-10 09:30N 29°36' W 090°40'0 0.0
2018-May-10 09:00N 29°36' W 090°40'0 0.3
2018-May-10 08:27N 29°36' W 090°40'0 0.2
2018-May-10 08:00N 29°36' W 090°40'0 0.0
2018-May-10 07:29N 29°36' W 090°40'0 0.2
2018-May-10 07:00N 29°36' W 090°40'0 0.1
2018-May-10 06:27N 29°36' W 090°40'0 0.0
2018-May-10 06:01N 29°36' W 090°40'0 0.0
2018-May-10 05:31N 29°36' W 090°40'0 0.0
2018-May-10 04:59N 29°36' W 090°40'0 0.0
2018-May-10 04:31N 29°36' W 090°40'0 0.0
2018-May-10 03:59N 29°36' W 090°40'0 0.0
2018-May-10 03:26N 29°36' W 090°40'0 0.0
2018-May-10 03:00N 29°36' W 090°40'1 2.2
2018-May-10 02:31N 29°37' W 090°41'1 2.2
2018-May-10 02:00N 29°36' W 090°43'2 3.4
2018-May-10 01:31N 29°35' W 090°43'1 2.9
2018-May-10 01:01N 29°34' W 090°45'1 2.8
2018-May-10 00:30N 29°33' W 090°46'0 0.5
2018-May-10 00:00N 29°32' W 090°46'0 0.2
2018-May-09 23:30N 29°32' W 090°46'2 4.0
2018-May-09 23:00N 29°32' W 090°48'4 6.8
2018-May-09 22:25N 29°32' W 090°53'3 7.0
2018-May-09 21:57N 29°34' W 090°56'26 2.6
2018-May-09 11:41N 29°39' W 091°25'1 3.2
2018-May-09 11:29N 29°40' W 091°26'2 3.9
2018-May-09 10:55N 29°41' W 091°28'2 4.5
2018-May-09 10:31N 29°42' W 091°30'3 3.9
2018-May-09 09:43N 29°43' W 091°33'0 0.1
2018-May-09 09:22N 29°43' W 091°33'1 1.8
2018-May-09 08:54N 29°44' W 091°34'2 3.8
2018-May-09 08:30N 29°45' W 091°35'2 4.2
2018-May-09 08:00N 29°46' W 091°38'9 4.2
2018-May-09 05:47N 29°47' W 091°48'1 3.2
2018-May-09 05:30N 29°47' W 091°49'2 4.4
2018-May-09 05:01N 29°49' W 091°50'2 4.9
2018-May-09 04:30N 29°51' W 091°52'2 4.8
2018-May-09 04:01N 29°51' W 091°55'3 4.9
2018-May-09 03:29N 29°50' W 091°58'3 5.3
2018-May-09 02:59N 29°50' W 092°01'3 5.2
2018-May-09 02:29N 29°49' W 092°03'3 5.1
2018-May-09 01:59N 29°48' W 092°06'2 5.0
2018-May-09 01:30N 29°47' W 092°09'10 2.2
2018-May-08 21:08N 29°50' W 092°19'0 2.1
2018-May-08 21:00N 29°50' W 092°19'19 2.9
2018-May-08 14:23N 29°56' W 092°41'2 5.2
2018-May-08 14:00N 29°57' W 092°43'2 4.1
2018-May-08 13:30N 29°58' W 092°45'3 5.4
2018-May-08 13:00N 29°58' W 092°48'3 5.6
2018-May-08 12:31N 29°57' W 092°51'2 4.9
2018-May-08 12:00N 29°57' W 092°54'2 4.6
2018-May-08 11:30N 29°56' W 092°56'2 4.6
2018-May-08 11:00N 29°56' W 092°59'2 4.3
2018-May-08 10:31N 29°56' W 093°02'2 4.5
2018-May-08 10:00N 29°56' W 093°04'2 4.7
2018-May-08 09:30N 29°56' W 093°07'2 4.2
2018-May-08 09:01N 29°56' W 093°09'2 4.6
2018-May-08 08:31N 29°58' W 093°11'2 4.6
2018-May-08 07:59N 29°60' W 093°13'1 2.6
2018-May-08 07:31N 30°01' W 093°14'2 3.1
2018-May-08 07:00N 30°02' W 093°15'0 0.8
2018-May-08 06:30N 30°02' W 093°15'2 3.8
2018-May-08 05:59N 30°04' W 093°16'2 3.8
2018-May-08 05:30N 30°05' W 093°18'1 1.2
2018-May-08 05:01N 30°06' W 093°18'1 1.9
2018-May-08 04:30N 30°06' W 093°19'0 0.1
2018-May-08 04:01N 30°06' W 093°19'0 0.0
2018-May-08 03:30N 30°06' W 093°19'0 0.0
2018-May-08 03:01N 30°06' W 093°19'0 0.0
2018-May-08 02:30N 30°06' W 093°19'0 0.0
2018-May-08 02:00N 30°06' W 093°19'0 0.1
2018-May-08 01:31N 30°06' W 093°19'2 4.0
2018-May-08 01:00N 30°04' W 093°21'2 4.0
2018-May-08 00:31N 30°04' W 093°23'2 4.1
2018-May-08 00:00N 30°04' W 093°25'2 4.7
2018-May-07 23:30N 30°04' W 093°28'2 4.9
2018-May-07 23:01N 30°04' W 093°31'2 3.3
2018-May-07 22:30N 30°04' W 093°33'0 0.1
2018-May-07 22:01N 30°04' W 093°32'0 0.1
2018-May-07 21:30N 30°04' W 093°32'0 0.1
2018-May-07 21:01N 30°04' W 093°33'0 0.2
2018-May-07 20:31N 30°04' W 093°33'0 0.1
2018-May-07 20:01N 30°04' W 093°33'0 0.0
2018-May-07 19:31N 30°04' W 093°33'0 0.0
2018-May-07 19:01N 30°04' W 093°33'0 0.0
2018-May-07 18:31N 30°04' W 093°33'0 0.0
2018-May-07 18:01N 30°04' W 093°33'0 0.0
2018-May-07 17:31N 30°04' W 093°33'0 0.0
2018-May-07 17:00N 30°04' W 093°33'0 0.1
2018-May-07 16:30N 30°04' W 093°33'0 0.1
2018-May-07 16:01N 30°04' W 093°33'0 0.0
2018-May-07 15:30N 30°04' W 093°33'0 0.0
2018-May-07 15:01N 30°04' W 093°33'0 0.0
2018-May-07 14:30N 30°04' W 093°33'0 0.0
2018-May-07 13:58N 30°04' W 093°33'0 0.0
2018-May-07 13:30N 30°04' W 093°33'0 0.0
2018-May-07 13:00N 30°04' W 093°33'0 0.0
2018-May-07 12:30N 30°04' W 093°33'0 0.0
2018-May-07 12:01N 30°04' W 093°33'0 0.0
2018-May-07 11:30N 30°04' W 093°33'0 0.0
2018-May-07 11:00N 30°04' W 093°33'0 0.0
2018-May-07 10:30N 30°04' W 093°33'0 0.0
2018-May-07 10:00N 30°04' W 093°33'0 0.0
2018-May-07 09:31N 30°04' W 093°33'0 0.0
2018-May-07 09:01N 30°04' W 093°33'0 0.0
2018-May-07 08:31N 30°04' W 093°33'0 0.0
2018-May-07 08:01N 30°04' W 093°33'0 0.0
2018-May-07 07:31N 30°04' W 093°33'0 0.0
2018-May-07 07:01N 30°04' W 093°33'0 0.0
2018-May-07 06:30N 30°04' W 093°33'0 0.0
2018-May-07 06:00N 30°04' W 093°33'0 0.0
2018-May-07 05:30N 30°04' W 093°33'0 0.0
2018-May-07 05:00N 30°04' W 093°33'0 0.0
2018-May-07 04:31N 30°04' W 093°33'0 0.0
2018-May-07 04:01N 30°04' W 093°33'0 0.0
2018-May-07 03:31N 30°04' W 093°33'0 0.0
2018-May-07 03:00N 30°04' W 093°33'0 0.0
2018-May-07 02:30N 30°04' W 093°33'0 0.0
2018-May-07 02:00N 30°04' W 093°33'1 3.0
2018-May-07 01:30N 30°04' W 093°34'3 5.3
2018-May-07 01:01N 30°04' W 093°37'3 5.6
2018-May-07 00:30N 30°04' W 093°41'3 5.5
2018-May-07 00:00N 30°03' W 093°44'3 6.0
2018-May-06 23:30N 30°00' W 093°46'4 7.4
2018-May-06 23:01N 29°59' W 093°50'2 4.8
2018-May-06 22:31N 29°59' W 093°52'3 6.8
2018-May-06 22:01N 29°60' W 093°56'3 5.1
2018-May-06 21:31N 30°01' W 093°59'0 0.5
2018-May-06 21:00N 30°01' W 093°59'0 0.0
2018-May-06 20:30N 30°01' W 093°59'0 0.0
2018-May-06 20:01N 30°01' W 093°59'0 0.1
2018-May-06 19:30N 30°01' W 093°59'0 0.0
2018-May-06 19:01N 30°01' W 093°59'0 0.2
2018-May-06 18:30N 30°01' W 093°59'0 0.4
2018-May-06 18:00N 30°01' W 093°59'0 0.2
2018-May-06 17:31N 30°01' W 093°59'0 0.0
2018-May-06 17:00N 30°01' W 093°59'0 0.0
2018-May-06 16:30N 30°01' W 093°59'0 0.0
2018-May-06 16:01N 30°01' W 093°59'0 0.0
2018-May-06 15:31N 30°01' W 093°59'0 0.0
2018-May-06 15:00N 30°01' W 093°59'0 0.0
2018-May-06 14:31N 30°01' W 093°59'0 0.0
2018-May-06 14:00N 30°01' W 093°59'0 0.0
2018-May-06 13:30N 30°01' W 093°59'0 0.0
2018-May-06 13:01N 30°01' W 093°59'0 0.0
2018-May-06 12:31N 30°01' W 093°59'0 0.0
2018-May-06 12:00N 30°01' W 093°59'0 0.0
2018-May-06 11:31N 30°01' W 093°59'0 0.0
2018-May-06 11:00N 30°01' W 093°59'0 0.0
2018-May-06 10:30N 30°01' W 093°59'0 0.0
2018-May-06 10:01N 30°01' W 093°59'0 0.0
2018-May-06 09:31N 30°01' W 093°59'0 0.0
2018-May-06 09:00N 30°01' W 093°59'0 0.0
2018-May-06 08:31N 30°01' W 093°59'0 0.0
2018-May-06 08:01N 30°01' W 093°59'0 0.0
2018-May-06 07:31N 30°01' W 093°59'0 0.0
2018-May-06 07:00N 30°01' W 093°59'0 0.0
2018-May-06 06:30N 30°01' W 093°59'0 0.0
2018-May-06 06:01N 30°01' W 093°59'0 0.0
2018-May-06 05:30N 30°01' W 093°59'0 0.0
2018-May-06 05:01N 30°01' W 093°59'0 0.0
2018-May-06 04:31N 30°01' W 093°59'0 0.0
2018-May-06 04:01N 30°01' W 093°59'0 0.0
2018-May-06 03:31N 30°01' W 093°59'0 0.0
2018-May-06 03:00N 30°01' W 093°59'0 0.0
2018-May-06 02:31N 30°01' W 093°59'0 0.0
2018-May-06 02:01N 30°01' W 093°59'0 0.0
2018-May-06 01:30N 30°01' W 093°59'0 0.0
2018-May-06 01:00N 30°01' W 093°59'0 0.0
2018-May-06 00:30N 30°01' W 093°59'0 0.0
2018-May-06 00:00N 30°01' W 093°59'0 0.0
2018-May-05 23:30N 30°01' W 093°59'0 0.0
2018-May-05 23:00N 30°01' W 093°59'0 0.0
2018-May-05 22:30N 30°01' W 093°59'0 0.0
2018-May-05 22:00N 30°01' W 093°59'0 0.0
2018-May-05 21:31N 30°01' W 093°59'0 0.0
2018-May-05 21:01N 30°01' W 093°59'0 0.0
2018-May-05 20:30N 30°01' W 093°59'0 0.0
2018-May-05 20:00N 30°01' W 093°59'0 0.0
2018-May-05 19:30N 30°01' W 093°59'0 0.0
2018-May-05 19:01N 30°01' W 093°59'0 0.0
2018-May-05 18:30N 30°01' W 093°59'0 0.3
2018-May-05 18:01N 30°01' W 093°59'0 0.3
2018-May-05 17:30N 30°01' W 093°59'0 0.0
2018-May-05 17:00N 30°01' W 093°59'0 0.0
2018-May-05 16:31N 30°01' W 093°59'0 0.0
2018-May-05 16:01N 30°01' W 093°59'0 0.0
2018-May-05 15:31N 30°01' W 093°59'0 0.0
2018-May-05 15:01N 30°01' W 093°59'0 0.0
2018-May-05 14:30N 30°01' W 093°59'0 0.0
2018-May-05 14:00N 30°01' W 093°59'0 0.0
2018-May-05 13:30N 30°01' W 093°59'0 0.0
2018-May-05 13:00N 30°01' W 093°59'0 0.0
2018-May-05 12:31N 30°01' W 093°59'0 0.0
2018-May-05 12:00N 30°01' W 093°59'0 0.0
2018-May-05 11:31N 30°01' W 093°59'0 0.0
2018-May-05 11:01N 30°01' W 093°59'0 0.0
2018-May-05 10:30N 30°01' W 093°59'0 0.0
2018-May-05 10:00N 30°01' W 093°59'0 0.0
2018-May-05 09:31N 30°01' W 093°59'0 0.0
2018-May-05 09:00N 30°01' W 093°59'0 0.0
2018-May-05 08:30N 30°01' W 093°59'0 0.0
2018-May-05 08:01N 30°01' W 093°59'0 0.0
2018-May-05 07:30N 30°01' W 093°59'0 0.0
2018-May-05 07:01N 30°01' W 093°59'0 0.0
2018-May-05 06:31N 30°01' W 093°59'0 0.0
2018-May-05 06:01N 30°01' W 093°59'0 0.0
2018-May-05 05:30N 30°01' W 093°59'0 0.0
2018-May-05 05:00N 30°01' W 093°59'0 0.0
2018-May-05 04:30N 30°01' W 093°59'0 0.0
2018-May-05 04:00N 30°01' W 093°59'0 0.0
2018-May-05 03:30N 30°01' W 093°59'0 0.0
2018-May-05 03:01N 30°01' W 093°59'0 0.0
2018-May-05 02:30N 30°01' W 093°59'0 0.0
2018-May-05 02:01N 30°01' W 093°59'0 0.0
2018-May-05 01:31N 30°01' W 093°59'0 0.0
2018-May-05 01:01N 30°01' W 093°59'0 0.0
2018-May-05 00:30N 30°01' W 093°59'0 0.0
2018-May-05 00:00N 30°01' W 093°59'0 0.0
2018-May-04 23:30N 30°01' W 093°59'0 0.0
2018-May-04 23:01N 30°01' W 093°59'0 0.0
2018-May-04 22:31N 30°01' W 093°59'0 0.0
2018-May-04 22:00N 30°01' W 093°59'0 0.0
2018-May-04 21:31N 30°01' W 093°59'0 0.0
2018-May-04 21:00N 30°01' W 093°59'0 0.0
2018-May-04 20:30N 30°01' W 093°59'0 0.0
2018-May-04 20:00N 30°01' W 093°59'0 0.0
2018-May-04 19:31N 30°01' W 093°59'0 0.0
2018-May-04 19:00N 30°01' W 093°59'0 0.0
2018-May-04 18:31N 30°01' W 093°59'0 0.0
2018-May-04 18:00N 30°01' W 093°59'0 0.0
2018-May-04 17:30N 30°01' W 093°59'0 0.0
2018-May-04 17:00N 30°01' W 093°59'0 0.0
2018-May-04 16:31N 30°01' W 093°59'0 0.4
2018-May-04 16:01N 30°01' W 093°59'3 5.3
2018-May-04 15:30N 29°60' W 093°56'4 7.5
2018-May-04 15:01N 29°59' W 093°52'3 6.7
2018-May-04 14:31N 29°59' W 093°48'4 7.2
2018-May-04 14:00N 30°01' W 093°45'3 6.5
2018-May-04 13:30N 30°03' W 093°42'3 6.7
2018-May-04 13:01N 30°04' W 093°38'3 6.3
2018-May-04 12:31N 30°04' W 093°34'3 6.0
2018-May-04 12:01N 30°04' W 093°31'3 6.1
2018-May-04 11:31N 30°04' W 093°27'3 6.0
2018-May-04 11:01N 30°04' W 093°24'3 5.0
2018-May-04 10:29N 30°04' W 093°21'3 5.5
2018-May-04 10:01N 30°06' W 093°19'0 0.1
2018-May-04 09:31N 30°06' W 093°19'0 0.1
2018-May-04 09:01N 30°06' W 093°19'0 0.1
2018-May-04 08:31N 30°06' W 093°19'0 0.2
2018-May-04 08:01N 30°06' W 093°19'1 2.4
2018-May-04 07:30N 30°05' W 093°18'1 1.7
2018-May-04 07:01N 30°05' W 093°17'1 1.2
2018-May-04 06:31N 30°05' W 093°17'0 0.0
2018-May-04 06:01N 30°05' W 093°17'0 0.0
2018-May-04 05:30N 30°05' W 093°17'0 0.0
2018-May-04 05:01N 30°05' W 093°17'0 0.0
2018-May-04 04:31N 30°05' W 093°17'1 1.4
2018-May-04 04:01N 30°04' W 093°16'2 4.9
2018-May-04 03:30N 30°02' W 093°15'2 4.9
2018-May-04 03:01N 29°60' W 093°13'3 5.5
2018-May-04 02:30N 29°58' W 093°11'2 5.0
2018-May-04 02:00N 29°56' W 093°09'117 3.9
2018-May-02 20:14N 29°34' W 090°56'2 7.2
2018-May-02 19:55N 29°33' W 090°54'3 6.6
2018-May-02 19:30N 29°32' W 090°51'4 7.1
2018-May-02 19:01N 29°32' W 090°47'3 5.9
2018-May-02 18:29N 29°34' W 090°44'1 2.6
2018-May-02 18:01N 29°35' W 090°43'2 4.2
2018-May-02 17:31N 29°37' W 090°41'1 2.5
2018-May-02 17:00N 29°36' W 090°40'0 0.0
2018-May-02 16:29N 29°36' W 090°40'0 0.0
2018-May-02 15:59N 29°36' W 090°40'0 0.0
2018-May-02 15:31N 29°36' W 090°40'0 0.0
2018-May-02 15:00N 29°36' W 090°40'0 0.0
2018-May-02 14:31N 29°36' W 090°40'0 0.0
2018-May-02 13:59N 29°36' W 090°40'1 2.7
2018-May-02 13:30N 29°35' W 090°39'3 6.4
2018-May-02 13:00N 29°35' W 090°35'3 6.6
2018-May-02 12:30N 29°34' W 090°32'37 1.2
2018-May-01 06:30N 29°55' W 089°57'0 0.0
2018-May-01 05:58N 29°55' W 089°57'  
Track history (hours):
 
Tides and Currents Weather Stations Pressure Air Temp Water Temp Dewpoint Dewpoint Depression Visibility Wind Speed Wind Dir Waves Ship Positions

Elizabeth Prince

Owner: Genesis Marine,LLC, Houston, TX. More information available from US FCC via Universal Licensing System and Coast Guard Vessel Documentation Center.

Last reported at 2018-May-10 13:51 UTC. Time now 2018-May-21 11:13 UTC.
Position N 29°33' W 090°24'.
Warning: this ship's position is 10 days out of date.

Length 27 m; draft 2.6 m.

Type: Towing. MMSI: 368000510.

Date/timePositionNaut miles runAvg speedWind from/ knotsBaromVisibWave heightAir tempDewpointWater temp
2018-May-10 13:51N 29°33' W 090°24'2 5.0
2018-May-10 13:27N 29°33' W 090°26'3 6.0
2018-May-10 13:01N 29°34' W 090°29'3 5.9
2018-May-10 12:30N 29°34' W 090°32'2 4.1
2018-May-10 12:00N 29°34' W 090°35'2 4.9
2018-May-10 11:31N 29°35' W 090°37'0 0.7
2018-May-10 11:00N 29°35' W 090°38'0 0.5
2018-May-10 10:31N 29°35' W 090°38'2 4.2
2018-May-10 10:00N 29°36' W 090°40'0 0.1
2018-May-10 09:30N 29°36' W 090°40'0 0.0
2018-May-10 09:00N 29°36' W 090°40'0 0.3
2018-May-10 08:27N 29°36' W 090°40'0 0.2
2018-May-10 08:00N 29°36' W 090°40'0 0.0
2018-May-10 07:29N 29°36' W 090°40'0 0.2
2018-May-10 07:00N 29°36' W 090°40'0 0.1
2018-May-10 06:27N 29°36' W 090°40'0 0.0
2018-May-10 06:01N 29°36' W 090°40'0 0.0
2018-May-10 05:31N 29°36' W 090°40'0 0.0
2018-May-10 04:59N 29°36' W 090°40'0 0.0
2018-May-10 04:31N 29°36' W 090°40'0 0.0
2018-May-10 03:59N 29°36' W 090°40'0 0.0
2018-May-10 03:26N 29°36' W 090°40'0 0.0
2018-May-10 03:00N 29°36' W 090°40'1 2.2
2018-May-10 02:31N 29°37' W 090°41'1 2.2
2018-May-10 02:00N 29°36' W 090°43'2 3.4
2018-May-10 01:31N 29°35' W 090°43'1 2.9
2018-May-10 01:01N 29°34' W 090°45'1 2.8
2018-May-10 00:30N 29°33' W 090°46'0 0.5
2018-May-10 00:00N 29°32' W 090°46'0 0.2
2018-May-09 23:30N 29°32' W 090°46'2 4.0
2018-May-09 23:00N 29°32' W 090°48'4 6.8
2018-May-09 22:25N 29°32' W 090°53'3 7.0
2018-May-09 21:57N 29°34' W 090°56'26 2.6
2018-May-09 11:41N 29°39' W 091°25'1 3.2
2018-May-09 11:29N 29°40' W 091°26'2 3.9
2018-May-09 10:55N 29°41' W 091°28'2 4.5
2018-May-09 10:31N 29°42' W 091°30'3 3.9
2018-May-09 09:43N 29°43' W 091°33'0 0.1
2018-May-09 09:22N 29°43' W 091°33'1 1.8
2018-May-09 08:54N 29°44' W 091°34'2 3.8
2018-May-09 08:30N 29°45' W 091°35'2 4.2
2018-May-09 08:00N 29°46' W 091°38'9 4.2
2018-May-09 05:47N 29°47' W 091°48'1 3.2
2018-May-09 05:30N 29°47' W 091°49'2 4.4
2018-May-09 05:01N 29°49' W 091°50'2 4.9
2018-May-09 04:30N 29°51' W 091°52'2 4.8
2018-May-09 04:01N 29°51' W 091°55'3 4.9
2018-May-09 03:29N 29°50' W 091°58'3 5.3
2018-May-09 02:59N 29°50' W 092°01'3 5.2
2018-May-09 02:29N 29°49' W 092°03'3 5.1
2018-May-09 01:59N 29°48' W 092°06'2 5.0
2018-May-09 01:30N 29°47' W 092°09'10 2.2
2018-May-08 21:08N 29°50' W 092°19'0 2.1
2018-May-08 21:00N 29°50' W 092°19'19 2.9
2018-May-08 14:23N 29°56' W 092°41'2 5.2
2018-May-08 14:00N 29°57' W 092°43'2 4.1
2018-May-08 13:30N 29°58' W 092°45'3 5.4
2018-May-08 13:00N 29°58' W 092°48'3 5.6
2018-May-08 12:31N 29°57' W 092°51'2 4.9
2018-May-08 12:00N 29°57' W 092°54'2 4.6
2018-May-08 11:30N 29°56' W 092°56'2 4.6
2018-May-08 11:00N 29°56' W 092°59'2 4.3
2018-May-08 10:31N 29°56' W 093°02'2 4.5
2018-May-08 10:00N 29°56' W 093°04'2 4.7
2018-May-08 09:30N 29°56' W 093°07'2 4.2
2018-May-08 09:01N 29°56' W 093°09'2 4.6
2018-May-08 08:31N 29°58' W 093°11'2 4.6
2018-May-08 07:59N 29°60' W 093°13'1 2.6
2018-May-08 07:31N 30°01' W 093°14'2 3.1
2018-May-08 07:00N 30°02' W 093°15'0 0.8
2018-May-08 06:30N 30°02' W 093°15'2 3.8
2018-May-08 05:59N 30°04' W 093°16'2 3.8
2018-May-08 05:30N 30°05' W 093°18'1 1.2
2018-May-08 05:01N 30°06' W 093°18'1 1.9
2018-May-08 04:30N 30°06' W 093°19'0 0.1
2018-May-08 04:01N 30°06' W 093°19'0 0.0
2018-May-08 03:30N 30°06' W 093°19'0 0.0
2018-May-08 03:01N 30°06' W 093°19'0 0.0
2018-May-08 02:30N 30°06' W 093°19'0 0.0
2018-May-08 02:00N 30°06' W 093°19'0 0.1
2018-May-08 01:31N 30°06' W 093°19'2 4.0
2018-May-08 01:00N 30°04' W 093°21'2 4.0
2018-May-08 00:31N 30°04' W 093°23'2 4.1
2018-May-08 00:00N 30°04' W 093°25'2 4.7
2018-May-07 23:30N 30°04' W 093°28'2 4.9
2018-May-07 23:01N 30°04' W 093°31'2 3.3
2018-May-07 22:30N 30°04' W 093°33'0 0.1
2018-May-07 22:01N 30°04' W 093°32'0 0.1
2018-May-07 21:30N 30°04' W 093°32'0 0.1
2018-May-07 21:01N 30°04' W 093°33'0 0.2
2018-May-07 20:31N 30°04' W 093°33'0 0.1
2018-May-07 20:01N 30°04' W 093°33'0 0.0
2018-May-07 19:31N 30°04' W 093°33'0 0.0
2018-May-07 19:01N 30°04' W 093°33'0 0.0
2018-May-07 18:31N 30°04' W 093°33'0 0.0
2018-May-07 18:01N 30°04' W 093°33'0 0.0
2018-May-07 17:31N 30°04' W 093°33'0 0.0
2018-May-07 17:00N 30°04' W 093°33'0 0.1
2018-May-07 16:30N 30°04' W 093°33'0 0.1
2018-May-07 16:01N 30°04' W 093°33'0 0.0
2018-May-07 15:30N 30°04' W 093°33'0 0.0
2018-May-07 15:01N 30°04' W 093°33'0 0.0
2018-May-07 14:30N 30°04' W 093°33'0 0.0
2018-May-07 13:58N 30°04' W 093°33'0 0.0
2018-May-07 13:30N 30°04' W 093°33'0 0.0
2018-May-07 13:00N 30°04' W 093°33'0 0.0
2018-May-07 12:30N 30°04' W 093°33'0 0.0
2018-May-07 12:01N 30°04' W 093°33'0 0.0
2018-May-07 11:30N 30°04' W 093°33'0 0.0
2018-May-07 11:00N 30°04' W 093°33'0 0.0
2018-May-07 10:30N 30°04' W 093°33'0 0.0
2018-May-07 10:00N 30°04' W 093°33'0 0.0
2018-May-07 09:31N 30°04' W 093°33'0 0.0
2018-May-07 09:01N 30°04' W 093°33'0 0.0
2018-May-07 08:31N 30°04' W 093°33'0 0.0
2018-May-07 08:01N 30°04' W 093°33'0 0.0
2018-May-07 07:31N 30°04' W 093°33'0 0.0
2018-May-07 07:01N 30°04' W 093°33'0 0.0
2018-May-07 06:30N 30°04' W 093°33'0 0.0
2018-May-07 06:00N 30°04' W 093°33'0 0.0
2018-May-07 05:30N 30°04' W 093°33'0 0.0
2018-May-07 05:00N 30°04' W 093°33'0 0.0
2018-May-07 04:31N 30°04' W 093°33'0 0.0
2018-May-07 04:01N 30°04' W 093°33'0 0.0
2018-May-07 03:31N 30°04' W 093°33'0 0.0
2018-May-07 03:00N 30°04' W 093°33'0 0.0
2018-May-07 02:30N 30°04' W 093°33'0 0.0
2018-May-07 02:00N 30°04' W 093°33'1 3.0
2018-May-07 01:30N 30°04' W 093°34'3 5.3
2018-May-07 01:01N 30°04' W 093°37'3 5.6
2018-May-07 00:30N 30°04' W 093°41'3 5.5
2018-May-07 00:00N 30°03' W 093°44'3 6.0
2018-May-06 23:30N 30°00' W 093°46'4 7.4
2018-May-06 23:01N 29°59' W 093°50'2 4.8
2018-May-06 22:31N 29°59' W 093°52'3 6.8
2018-May-06 22:01N 29°60' W 093°56'3 5.1
2018-May-06 21:31N 30°01' W 093°59'0 0.5
2018-May-06 21:00N 30°01' W 093°59'0 0.0
2018-May-06 20:30N 30°01' W 093°59'0 0.0
2018-May-06 20:01N 30°01' W 093°59'0 0.1
2018-May-06 19:30N 30°01' W 093°59'0 0.0
2018-May-06 19:01N 30°01' W 093°59'0 0.2
2018-May-06 18:30N 30°01' W 093°59'0 0.4
2018-May-06 18:00N 30°01' W 093°59'0 0.2
2018-May-06 17:31N 30°01' W 093°59'0 0.0
2018-May-06 17:00N 30°01' W 093°59'0 0.0
2018-May-06 16:30N 30°01' W 093°59'0 0.0
2018-May-06 16:01N 30°01' W 093°59'0 0.0
2018-May-06 15:31N 30°01' W 093°59'0 0.0
2018-May-06 15:00N 30°01' W 093°59'0 0.0
2018-May-06 14:31N 30°01' W 093°59'0 0.0
2018-May-06 14:00N 30°01' W 093°59'0 0.0
2018-May-06 13:30N 30°01' W 093°59'0 0.0
2018-May-06 13:01N 30°01' W 093°59'0 0.0
2018-May-06 12:31N 30°01' W 093°59'0 0.0
2018-May-06 12:00N 30°01' W 093°59'0 0.0
2018-May-06 11:31N 30°01' W 093°59'0 0.0
2018-May-06 11:00N 30°01' W 093°59'0 0.0
2018-May-06 10:30N 30°01' W 093°59'0 0.0
2018-May-06 10:01N 30°01' W 093°59'0 0.0
2018-May-06 09:31N 30°01' W 093°59'0 0.0
2018-May-06 09:00N 30°01' W 093°59'0 0.0
2018-May-06 08:31N 30°01' W 093°59'0 0.0
2018-May-06 08:01N 30°01' W 093°59'0 0.0
2018-May-06 07:31N 30°01' W 093°59'0 0.0
2018-May-06 07:00N 30°01' W 093°59'0 0.0
2018-May-06 06:30N 30°01' W 093°59'0 0.0
2018-May-06 06:01N 30°01' W 093°59'0 0.0
2018-May-06 05:30N 30°01' W 093°59'0 0.0
2018-May-06 05:01N 30°01' W 093°59'0 0.0
2018-May-06 04:31N 30°01' W 093°59'0 0.0
2018-May-06 04:01N 30°01' W 093°59'0 0.0
2018-May-06 03:31N 30°01' W 093°59'0 0.0
2018-May-06 03:00N 30°01' W 093°59'0 0.0
2018-May-06 02:31N 30°01' W 093°59'0 0.0
2018-May-06 02:01N 30°01' W 093°59'0 0.0
2018-May-06 01:30N 30°01' W 093°59'0 0.0
2018-May-06 01:00N 30°01' W 093°59'0 0.0
2018-May-06 00:30N 30°01' W 093°59'0 0.0
2018-May-06 00:00N 30°01' W 093°59'0 0.0
2018-May-05 23:30N 30°01' W 093°59'0 0.0
2018-May-05 23:00N 30°01' W 093°59'0 0.0
2018-May-05 22:30N 30°01' W 093°59'0 0.0
2018-May-05 22:00N 30°01' W 093°59'0 0.0
2018-May-05 21:31N 30°01' W 093°59'0 0.0
2018-May-05 21:01N 30°01' W 093°59'0 0.0
2018-May-05 20:30N 30°01' W 093°59'0 0.0
2018-May-05 20:00N 30°01' W 093°59'0 0.0
2018-May-05 19:30N 30°01' W 093°59'0 0.0
2018-May-05 19:01N 30°01' W 093°59'0 0.0
2018-May-05 18:30N 30°01' W 093°59'0 0.3
2018-May-05 18:01N 30°01' W 093°59'0 0.3
2018-May-05 17:30N 30°01' W 093°59'0 0.0
2018-May-05 17:00N 30°01' W 093°59'0 0.0
2018-May-05 16:31N 30°01' W 093°59'0 0.0
2018-May-05 16:01N 30°01' W 093°59'0 0.0
2018-May-05 15:31N 30°01' W 093°59'0 0.0
2018-May-05 15:01N 30°01' W 093°59'0 0.0
2018-May-05 14:30N 30°01' W 093°59'0 0.0
2018-May-05 14:00N 30°01' W 093°59'0 0.0
2018-May-05 13:30N 30°01' W 093°59'0 0.0
2018-May-05 13:00N 30°01' W 093°59'0 0.0
2018-May-05 12:31N 30°01' W 093°59'0 0.0
2018-May-05 12:00N 30°01' W 093°59'0 0.0
2018-May-05 11:31N 30°01' W 093°59'0 0.0
2018-May-05 11:01N 30°01' W 093°59'0 0.0
2018-May-05 10:30N 30°01' W 093°59'0 0.0
2018-May-05 10:00N 30°01' W 093°59'0 0.0
2018-May-05 09:31N 30°01' W 093°59'0 0.0
2018-May-05 09:00N 30°01' W 093°59'0 0.0
2018-May-05 08:30N 30°01' W 093°59'0 0.0
2018-May-05 08:01N 30°01' W 093°59'0 0.0
2018-May-05 07:30N 30°01' W 093°59'0 0.0
2018-May-05 07:01N 30°01' W 093°59'0 0.0
2018-May-05 06:31N 30°01' W 093°59'0 0.0
2018-May-05 06:01N 30°01' W 093°59'0 0.0
2018-May-05 05:30N 30°01' W 093°59'0 0.0
2018-May-05 05:00N 30°01' W 093°59'0 0.0
2018-May-05 04:30N 30°01' W 093°59'0 0.0
2018-May-05 04:00N 30°01' W 093°59'0 0.0
2018-May-05 03:30N 30°01' W 093°59'0 0.0
2018-May-05 03:01N 30°01' W 093°59'0 0.0
2018-May-05 02:30N 30°01' W 093°59'0 0.0
2018-May-05 02:01N 30°01' W 093°59'0 0.0
2018-May-05 01:31N 30°01' W 093°59'0 0.0
2018-May-05 01:01N 30°01' W 093°59'0 0.0
2018-May-05 00:30N 30°01' W 093°59'0 0.0
2018-May-05 00:00N 30°01' W 093°59'0 0.0
2018-May-04 23:30N 30°01' W 093°59'0 0.0
2018-May-04 23:01N 30°01' W 093°59'0 0.0
2018-May-04 22:31N 30°01' W 093°59'0 0.0
2018-May-04 22:00N 30°01' W 093°59'0 0.0
2018-May-04 21:31N 30°01' W 093°59'0 0.0
2018-May-04 21:00N 30°01' W 093°59'0 0.0
2018-May-04 20:30N 30°01' W 093°59'0 0.0
2018-May-04 20:00N 30°01' W 093°59'0 0.0
2018-May-04 19:31N 30°01' W 093°59'0 0.0
2018-May-04 19:00N 30°01' W 093°59'0 0.0
2018-May-04 18:31N 30°01' W 093°59'0 0.0
2018-May-04 18:00N 30°01' W 093°59'0 0.0
2018-May-04 17:30N 30°01' W 093°59'0 0.0
2018-May-04 17:00N 30°01' W 093°59'0 0.0
2018-May-04 16:31N 30°01' W 093°59'0 0.4
2018-May-04 16:01N 30°01' W 093°59'3 5.3
2018-May-04 15:30N 29°60' W 093°56'4 7.5
2018-May-04 15:01N 29°59' W 093°52'3 6.7
2018-May-04 14:31N 29°59' W 093°48'4 7.2
2018-May-04 14:00N 30°01' W 093°45'3 6.5
2018-May-04 13:30N 30°03' W 093°42'3 6.7
2018-May-04 13:01N 30°04' W 093°38'3 6.3
2018-May-04 12:31N 30°04' W 093°34'3 6.0
2018-May-04 12:01N 30°04' W 093°31'3 6.1
2018-May-04 11:31N 30°04' W 093°27'3 6.0
2018-May-04 11:01N 30°04' W 093°24'3 5.0
2018-May-04 10:29N 30°04' W 093°21'3 5.5
2018-May-04 10:01N 30°06' W 093°19'0 0.1
2018-May-04 09:31N 30°06' W 093°19'0 0.1
2018-May-04 09:01N 30°06' W 093°19'0 0.1
2018-May-04 08:31N 30°06' W 093°19'0 0.2
2018-May-04 08:01N 30°06' W 093°19'1 2.4
2018-May-04 07:30N 30°05' W 093°18'1 1.7
2018-May-04 07:01N 30°05' W 093°17'1 1.2
2018-May-04 06:31N 30°05' W 093°17'0 0.0
2018-May-04 06:01N 30°05' W 093°17'0 0.0
2018-May-04 05:30N 30°05' W 093°17'0 0.0
2018-May-04 05:01N 30°05' W 093°17'0 0.0
2018-May-04 04:31N 30°05' W 093°17'1 1.4
2018-May-04 04:01N 30°04' W 093°16'2 4.9
2018-May-04 03:30N 30°02' W 093°15'2 4.9
2018-May-04 03:01N 29°60' W 093°13'3 5.5
2018-May-04 02:30N 29°58' W 093°11'2 5.0
2018-May-04 02:00N 29°56' W 093°09'117 3.9
2018-May-02 20:14N 29°34' W 090°56'2 7.2
2018-May-02 19:55N 29°33' W 090°54'3 6.6
2018-May-02 19:30N 29°32' W 090°51'4 7.1
2018-May-02 19:01N 29°32' W 090°47'3 5.9
2018-May-02 18:29N 29°34' W 090°44'1 2.6
2018-May-02 18:01N 29°35' W 090°43'2 4.2
2018-May-02 17:31N 29°37' W 090°41'1 2.5
2018-May-02 17:00N 29°36' W 090°40'0 0.0
2018-May-02 16:29N 29°36' W 090°40'0 0.0
2018-May-02 15:59N 29°36' W 090°40'0 0.0
2018-May-02 15:31N 29°36' W 090°40'0 0.0
2018-May-02 15:00N 29°36' W 090°40'0 0.0
2018-May-02 14:31N 29°36' W 090°40'0 0.0
2018-May-02 13:59N 29°36' W 090°40'1 2.7
2018-May-02 13:30N 29°35' W 090°39'3 6.4
2018-May-02 13:00N 29°35' W 090°35'3 6.6
2018-May-02 12:30N 29°34' W 090°32'37 1.2
2018-May-01 06:30N 29°55' W 089°57'0 0.0
2018-May-01 05:58N 29°55' W 089°57'  

Dump ship's entire track history